Dolores, Colorado
Current Conditions -  °F | °C
As of 3:53 PM on Friday 31 Oct 2014 (Local Time) from KCEZ Reporting Station
Clear Clear  
Wind Chill: 67°   Ceiling: Unl
Heat Index: 67°   Visibility: 10mi
Dew Point: 28°   Wind: 13mph
Humidity: 23%   Direction: 140°SE
Pressure: 30.15"   Gusts: NA
Location:  37.47°N, 108.5°W
Report Text: KCEZ 312153Z AUTO 14011KT 10SM CLR 19/M02 A3015 RMK AO2 SLP172 T01941022
Loading
Personal Weather Stations






























Interactive Weather Map
Tropical Storm Tracking
New forecast layout! Learn more

10-Day Weather Forecast

Advertisements
Track Severe Weather on mobile